»·PEaware :: UAL488 KSFO-KLAX

UAL488 :: KSFO-KLAX

FLIGHT INFORMATION

Flight Status: Arrived
Operator:
United Airlines
More flights by this operator :: More flights under this callsign
Pilot: Ulrik N. (13596)
Aircraft: AIRBUS A320
(A320)
More flights by this aircraft type
Origin: KSFO San Francisco Intl
United States
Destination: KLAX Los Angeles Intl
United States
More flights between these airports :: More routes between these airports
Route: WESLA3 EBAYE BURGL IRNMN1
File this flight plan on PilotEdge
Remarks:
Altitude:
(Current/Filed)
35,000ft
Speed:
(Current/Filed)
430kts
Departed: 30-Apr-18 07:31 PM
Arrived: 30-Apr-18 08:27 PM
Distance/Time
Traveled:
293nm/0:55
Distance/Time
To Go:
Arrived

Flight Plot

Page will automatically refresh every two minutes.

Flight plan parsing failed; only flown route is shown


Map Options




Map Legend


Flown Route
Filed Route
Departure Airport
Arrival Airport
Navaid (VOR, NDB)
Fix

Horizontal Profiles

Position Reports

Time Latitude Longitude Heading Altitude Ground
Speed
30-Apr-18 19:08 37.619443 -122.384828 119 21ft 0kts
30-Apr-18 19:09 37.619443 -122.384828 119 21ft 0kts
30-Apr-18 19:11 37.619443 -122.384828 119 21ft 0kts
30-Apr-18 19:12 37.619443 -122.384828 119 21ft 0kts
30-Apr-18 19:13 37.619443 -122.384828 119 21ft 0kts
30-Apr-18 19:14 37.619443 -122.384828 119 21ft 0kts
30-Apr-18 19:15 37.619443 -122.384828 119 21ft 0kts
30-Apr-18 19:16 37.619443 -122.384828 119 21ft 0kts
30-Apr-18 19:17 37.619443 -122.384828 119 21ft 0kts
30-Apr-18 19:18 37.619590 -122.385158 119 21ft 2kts
30-Apr-18 19:19 37.619632 -122.385601 36 21ft 1kts
30-Apr-18 19:20 37.620267 -122.385175 28 21ft 0kts
30-Apr-18 19:21 37.620267 -122.385175 28 21ft 0kts
30-Apr-18 19:22 37.620267 -122.385175 28 21ft 0kts
30-Apr-18 19:23 37.620267 -122.385175 28 21ft 0kts
30-Apr-18 19:24 37.620127 -122.383132 117 21ft 12kts
30-Apr-18 19:25 37.618313 -122.378752 112 21ft 19kts
30-Apr-18 19:26 37.616208 -122.372755 118 21ft 18kts
30-Apr-18 19:27 37.613556 -122.367552 120 21ft 17kts
30-Apr-18 19:28 37.611325 -122.362241 118 21ft 16kts
30-Apr-18 19:29 37.610973 -122.359101 30 21ft 0kts
30-Apr-18 19:30 37.611939 -122.358939 307 21ft 11kts
30-Apr-18 19:31 37.626958 -122.394315 295 1229ft 175kts
30-Apr-18 19:32 37.652153 -122.452004 298 3808ft 220kts
30-Apr-18 19:33 37.660128 -122.524378 231 6838ft 254kts
30-Apr-18 19:34 37.585705 -122.524448 159 9267ft 310kts
30-Apr-18 19:34 37.517301 -122.488909 159 11044ft 344kts
30-Apr-18 19:35 37.440320 -122.407648 131 12728ft 383kts
30-Apr-18 19:36 37.366654 -122.307106 131 14781ft 401kts
30-Apr-18 19:37 37.289367 -122.202342 131 16650ft 418kts
30-Apr-18 19:38 37.208978 -122.093767 131 18362ft 433kts
30-Apr-18 19:39 37.125597 -121.981536 131 19962ft 447kts
30-Apr-18 19:40 37.039610 -121.866211 131 21347ft 463kts
30-Apr-18 19:41 36.950411 -121.747015 132 22617ft 478kts
30-Apr-18 19:42 36.860129 -121.626803 132 23848ft 489kts
30-Apr-18 19:43 36.765830 -121.501720 132 24981ft 500kts
30-Apr-18 19:44 36.669944 -121.375027 132 26039ft 510kts
30-Apr-18 19:45 36.571872 -121.245962 133 26992ft 520kts
30-Apr-18 19:46 36.471815 -121.114797 133 27998ft 526kts
30-Apr-18 19:47 36.374539 -120.979927 130 29015ft 529kts
30-Apr-18 19:48 36.278085 -120.841598 130 29790ft 535kts
30-Apr-18 19:49 36.180965 -120.702831 130 30794ft 535kts
30-Apr-18 19:50 36.083616 -120.564318 131 31770ft 535kts
30-Apr-18 19:51 35.985760 -120.425661 130 32675ft 536kts
30-Apr-18 19:52 35.893592 -120.295590 131 33464ft 536kts
30-Apr-18 19:53 35.788591 -120.199952 152 34015ft 531kts
30-Apr-18 19:54 35.662869 -120.105388 152 34726ft 529kts
30-Apr-18 19:55 35.538010 -120.011171 151 35062ft 528kts
30-Apr-18 19:56 35.413016 -119.917223 152 35074ft 528kts
30-Apr-18 19:57 35.293505 -119.827171 148 35065ft 530kts
30-Apr-18 19:58 35.176092 -119.718776 144 33575ft 532kts
30-Apr-18 19:59 35.058227 -119.608983 144 31801ft 535kts
30-Apr-18 20:00 34.940668 -119.499849 145 29417ft 531kts
30-Apr-18 20:01 34.824824 -119.395177 146 26798ft 512kts
30-Apr-18 20:02 34.724495 -119.305776 147 24617ft 463kts
30-Apr-18 20:03 34.623304 -119.217816 147 21531ft 437kts
30-Apr-18 20:04 34.527977 -119.135120 146 18498ft 413kts
30-Apr-18 20:05 34.438947 -119.056236 146 16686ft 399kts
30-Apr-18 20:06 34.350669 -118.979783 146 15025ft 386kts
30-Apr-18 20:07 34.266250 -118.903663 145 13384ft 373kts
30-Apr-18 20:08 34.188386 -118.832135 145 12668ft 335kts
30-Apr-18 20:09 34.119832 -118.761475 140 11610ft 317kts
30-Apr-18 20:10 34.055778 -118.691941 140 10419ft 306kts
30-Apr-18 20:11 34.023575 -118.603109 96 8764ft 299kts
30-Apr-18 20:12 34.014995 -118.508695 97 7750ft 264kts
30-Apr-18 20:13 34.012253 -118.423819 82 7043ft 255kts
30-Apr-18 20:14 34.022047 -118.348502 82 6413ft 250kts
30-Apr-18 20:15 34.033291 -118.268471 82 5522ft 244kts
30-Apr-18 20:16 34.043855 -118.188951 82 4608ft 239kts
30-Apr-18 20:17 34.053495 -118.110466 82 3721ft 234kts
30-Apr-18 20:18 34.045538 -118.044306 160 3631ft 194kts
30-Apr-18 20:19 33.999265 -118.067484 233 3617ft 197kts
30-Apr-18 20:20 33.966821 -118.120630 253 3621ft 190kts
30-Apr-18 20:21 33.958370 -118.181263 263 3396ft 174kts
30-Apr-18 20:22 33.952696 -118.235504 263 2508ft 170kts
30-Apr-18 20:23 33.946805 -118.292015 262 1610ft 167kts
30-Apr-18 20:24 33.941781 -118.340366 261 829ft 138kts
30-Apr-18 20:25 33.937016 -118.386132 261 120ft 136kts
30-Apr-18 20:26 33.936223 -118.403705 279 112ft 28kts
30-Apr-18 20:27 33.937069 -118.408904 349 112ft 15kts
30-Apr-18 20:28 33.938214 -118.405196 83 112ft 21kts
30-Apr-18 20:29 33.939714 -118.400570 353 112ft 13kts
30-Apr-18 20:30 33.941651 -118.400220 84 112ft 0kts
30-Apr-18 20:31 33.941651 -118.400220 84 112ft 0kts

Navigation Log

Ident Type
Flight plan parsing failed, navigation log unavailable